Wilton, New Hampshire
Current Conditions -  °F | °C
As of 12:51 PM on Friday 21 Nov 2014 (Local Time) from KASH Reporting Station
Scattered Clouds Scattered Clouds  
Wind Chill: -6°   Ceiling: Unl
Heat Index:   Visibility: 10mi
Dew Point: -13°   Wind: 22mph
Humidity: 36%   Direction: 310°NW
Pressure: 30.14"   Gusts: 31mph
Location:  42.85°N, 71.74°W
Report Text: KASH 211751Z 31019G27KT 10SM SCT050 01/M13 A3014 RMK AO2 53015 T00111127 10016 21038 PK WND 32028/1731 SLP467
Loading
Personal Weather Stations






























Interactive Weather Map New forecast layout! Learn more

10-Day Weather Forecast

Advertisements
Track Severe Weather on mobile